AirNav   Pilot Hours Calculator
 
 1174 users online  

FD54 Gold Eagle Helicopters Inc Heliport
Kissimmee, Florida, USA

GOING TO KISSIMMEE?


FAA INFORMATION EFFECTIVE 05 DECEMBER 2019

Location

FAA Identifier: FD54
Lat/Long: 28-20-05.0000N 081-30-05.0000W
28-20.083333N 081-30.083333W
28.3347222,-81.5013889
(estimated)
Elevation: 80 ft. / 24 m (estimated)
Variation: 04W (1995)
From city: 6 miles NW of KISSIMMEE, FL
Time zone: UTC -5 (UTC -4 during Daylight Saving Time)
Zip code: 34746

Heliport Operations

Heliport use: Private use. Permission required prior to landing
Activation date: 05/1997
Control tower: no
ARTCC: JACKSONVILLE CENTER
FSS: SAINT PETERSBURG FLIGHT SERVICE STATION
Attendance: 0700-2100
Wind indicator: yes
Segmented circle: no
Lights: SS-SR

Heliport Communications

WX AWOS-3PT at ISM (4 nm SE): 128.775 (407-847-0533)
WX ASOS at MCO (12 nm NE): PHONE 407-855-5235
WX ASOS at ORL (15 nm NE): PHONE 407-658-6753

Nearby radio navigation aids

VOR radial/distance  VOR name  Freq  Var
ORLr215/15.3ORLANDO VORTAC112.2000E
LALr051/34.2LAKELAND VORTAC116.0001E

Heliport Services

Runway Information

Helipad H1

Dimensions: 30 x 30 ft. / 9 x 9 m
Surface: concrete
Runway edge lights: FLD
Latitude: 28-20.083333N
Longitude: 081-30.083333W
Elevation: 80.0 ft.
Traffic pattern: leftleft

Heliport Ownership and Management from official FAA records

Ownership: Privately-owned
Owner: RICHARD T. VIOLETTE, JR.
5519 W IRIO BRONSOM HWY
KISSIMMEE, FL 34746
Phone 407-397-0226
Manager: RICHARD T. VIOLETTE, JR.
5519 W IRIO BRONSOM HWY
KISSIMMEE, FL 34746
Phone 407-397-0226

Heliport Operational Statistics

Aircraft based on the field: 2
Helicopters: 2
    

Additional Remarks

A52-H1 70 FT POLES & PLINES 500 FT S OF HELIPAD.
ADDITIONAL PH - 407-310-4363
FOR CD CTC ORLANDO APCH AT 407-852-7553.

Instrument Procedures

There are no published instrument procedures at FD54.

Some nearby airports with instrument procedures:

KISM - Kissimmee Gateway Airport (4 nm SE)
KMCO - Orlando International Airport (12 nm NE)
KORL - Executive Airport (15 nm NE)
KGIF - Winter Haven Regional Airport (21 nm SW)
X04 - Orlando Apopka Airport (23 nm N)
 
Loc | Ops | Rwys | IFR | FBO | Links
Com | Nav | Svcs | Stats | Notes


 
Area around FD54 (Gold Eagle Helicopters Inc Heliport)
 
Road maps at: MapQuest Bing Google
 
Aerial photo
No photo
 
Sectional chart

 
Airport distance calculator
Flying to Gold Eagle Helicopters Inc Heliport? Find the distance to fly.

From to FD54

Sunrise and sunset
Times for 07-Dec-2019
 Local
(UTC-5)
 Zulu
(UTC)
Morning civil twilight06:4111:41
Sunrise07:0612:06
Sunset17:2922:29
Evening civil twilight17:5422:54

Current date and time
Zulu (UTC)  08-Dec-2019 02:31:23
Local (UTC-5)  07-Dec-2019 21:31:23
 
METAR
KISM 
5nm SE 
080156Z 04006KT 10SM OVC100 20/12 A3019 RMK AO2 SLP224 T02000122
KMCO 
10nm NE 
080153Z 02009KT 10SM SCT090 BKN110 OVC250 20/12 A3018 RMK AO2 SLP218 T02000117
KORL 
16nm NE 
080153Z 02006KT 10SM OVC100 20/12 A3018 RMK AO2 SLP225 T02000122
TAF
KISM 
5nm SE 
071739Z 0718/0818 04006KT P6SM FEW040 SCT100 SCT250 FM080000 02005KT P6SM SCT050 BKN100 FM081500 08007KT P6SM SCT035 BKN090
KMCO 
10nm NE 
072051Z 0721/0824 04006KT P6SM SCT100 SCT250 FM080000 02005KT P6SM SCT070 BKN100 FM081500 08007KT P6SM SCT035 BKN090
NOTAMs
Click for the latest NOTAMs
NOTAMs are issued by the DoD/FAA and will open in a separate window not controlled by AirNav.

 

 
 

Would you like to see your business listed on this page?

 If your business provides an interesting product or service to pilots, flight crews, aircraft, or users of the Gold Eagle Helicopters Inc Heliport, you should consider listing it here.  To start the listing process, click on the button below
 
Add a business
 

Other Pages about Gold Eagle Helicopters Inc Heliport

Update a link
 
Copyright © AirNav, LLC. All rights reserved. Privacy Policy  Contact